Latest Weather Observations for Mallacoota

IDV60801

Issued at 8:12 pm EST Tuesday 19 June 2018 (issued every 10 minutes, with the page automatically refreshed every 10 minutes)

About weather observations | Map of weather stations | Latest weather observations for VIC | Other Formats
Station Details ID: 084084 Name: MALLACOOTA Lat: -37.60 Lon: 149.73 Height: 22.0 m
Data from the previous 72 hours. | See also: Recent months at Mallacoota
Date/Time
EST
Temp
°C
App
Temp
°C
Dew
Point
°C
Rel
Hum
%
Delta-T
°C
Wind Press
QNH
hPa
Press
MSL
hPa
Rain since
9am
mm
Dir  Spd
km/h
Gust
km/h
Spd
kts
Gust
kts
19/08:00pm 10.3 8.4 8.9 91 0.7 WNW 9 13 5 7 1028.8 1028.9 3.8
19/07:30pm 10.5 9.0 9.1 91 0.7 W 7 11 4 6 1028.9 1029.0 3.6
19/07:00pm 10.8 9.0 9.4 91 0.7 W 9 13 5 7 1028.7 1028.8 3.6
19/06:30pm 11.1 9.3 9.5 90 0.8 W 9 15 5 8 1028.4 1028.5 3.6
19/06:00pm 11.0 9.5 9.3 89 0.8 W 7 13 4 7 1028.2 1028.3 3.0
19/05:30pm 11.4 9.6 9.5 88 1.0 WSW 9 11 5 6 1028.0 1028.1 2.8
19/05:00pm 11.9 10.6 9.8 87 1.1 WNW 7 13 4 7 1027.6 1027.7 2.0
19/04:30pm 12.5 11.2 9.9 84 1.3 WSW 7 13 4 7 1027.3 1027.4 0.4
19/04:00pm 13.1 11.0 9.9 81 1.6 SW 11 17 6 9 1027.2 1027.3 0.4
19/03:30pm 13.3 10.9 9.9 80 1.7 SSW 13 20 7 11 1027.2 1027.3 0.4
19/03:00pm 14.0 11.5 9.6 75 2.2 SW 13 20 7 11 1026.8 1026.9 0.4
19/02:30pm 14.2 11.3 9.8 75 2.3 SSW 15 22 8 12 1026.6 1026.7 0.4
19/02:00pm 14.9 11.9 9.1 68 2.9 SSW 15 28 8 15 1026.6 1026.7 0.4
19/01:30pm 14.2 11.0 9.8 75 2.3 S 17 24 9 13 1026.5 1026.6 0.4
19/01:00pm 14.6 13.2 11.0 79 1.9 S 9 15 5 8 1026.8 1026.9 0.4
19/12:30pm 14.5 11.9 9.5 72 2.6 E 13 24 7 13 1026.9 1027.0 0.2
19/12:00pm 15.4 12.7 9.1 66 3.2 S 13 22 7 12 1027.2 1027.3 0.2
19/11:30am 15.1 11.9 10.1 72 2.6 S 17 26 9 14 1027.3 1027.4 0.2
19/11:00am 15.3 11.8 10.9 75 2.3 S 20 32 11 17 1027.4 1027.5 0.2
19/10:30am 14.2 10.8 10.4 78 2.0 S 19 30 10 16 1027.4 1027.5 0.2
19/10:00am 13.3 11.2 11.2 87 1.1 SSW 13 20 7 11 1027.3 1027.4 0.2
19/09:30am 12.6 10.0 10.8 89 0.9 SSW 15 24 8 13 1027.1 1027.2 0.2
19/09:00am 12.1 9.8 10.5 90 0.8 SSW 13 24 7 13 1026.9 1027.0 18.6
19/08:30am 11.6 9.2 9.9 89 0.9 SW 13 28 7 15 1026.7 1026.8 18.4
19/08:00am 11.4 8.8 9.3 87 1.0 SW 13 19 7 10 1026.5 1026.6 16.8
19/07:30am 11.4 8.3 9.0 85 1.2 SW 15 22 8 12 1026.1 1026.2 16.4
19/07:00am 11.8 7.7 8.6 81 1.6 SSW 20 35 11 19 1025.9 1026.0 16.4
19/06:30am 12.5 8.0 8.6 77 1.9 SSW 22 41 12 22 1025.6 1025.7 16.4
19/06:00am 12.3 7.9 7.4 72 2.4 SSW 20 35 11 19 1025.2 1025.3 16.4
19/05:30am 12.5 8.2 7.0 69 2.6 SW 19 30 10 16 1024.9 1025.0 16.4
19/05:00am 12.2 7.7 7.1 71 2.4 SW 20 30 11 16 1024.7 1024.8 16.4
19/04:30am 12.8 8.1 7.9 72 2.4 SSW 22 33 12 18 1024.5 1024.6 16.4
19/04:00am 13.0 8.8 8.1 72 2.4 SSW 20 32 11 17 1024.6 1024.7 16.4
19/03:30am 12.8 8.0 7.5 70 2.6 S 22 35 12 19 1024.5 1024.6 16.4
19/03:00am 12.4 7.6 7.3 71 2.5 SSW 22 37 12 20 1024.4 1024.5 16.4
19/02:30am 12.4 8.0 7.3 71 2.5 SSW 20 32 11 17 1024.2 1024.3 16.4
19/02:00am 12.6 7.8 7.3 70 2.6 S 22 39 12 21 1024.3 1024.4 16.4
19/01:30am 12.4 7.3 7.7 73 2.3 SSW 24 39 13 21 1024.3 1024.4 16.4
19/01:00am 12.2 5.4 7.9 75 2.1 S 33 52 18 28 1024.2 1024.3 16.4
19/12:32am 12.5 6.6 7.4 71 2.5 S 28 54 15 29 1024.2 1024.3 16.4
19/12:30am 12.7 7.1 7.0 68 2.7 S 26 52 14 28 1024.2 1024.3 16.4
19/12:15am 12.3 4.6 7.2 71 2.5 S 37 56 20 30 1024.1 1024.2 16.4
19/12:08am 12.2 6.3 7.7 74 2.2 SSW 28 56 15 30 1024.1 1024.2 16.4
19/12:00am 12.0 7.1 6.9 71 2.4 SSW 22 35 12 19 1024.0 1024.0 16.4
 
Date/Time
EST
Temp
°C
App
Temp
°C
Dew
Point
°C
Rel
Hum
%
Delta-T
°C
Wind Press
QNH
hPa
Press
MSL
hPa
Rain since
9am
mm
Dir  Spd
km/h
Gust
km/h
Spd
kts
Gust
kts
18/11:30pm 11.6 6.8 7.3 75 2.1 SSW 22 32 12 17 1023.9 1023.9 16.4
18/11:09pm 12.1 6.2 7.6 74 2.2 SSW 28 50 15 27 1024.0 1024.0 16.2
18/11:00pm 11.4 7.4 8.3 81 1.5 SSW 19 33 10 18 1023.9 1023.9 16.2
18/10:30pm 11.5 6.9 8.0 79 1.7 SSW 22 39 12 21 1024.0 1024.0 16.2
18/10:00pm 11.8 4.8 6.7 71 2.4 S 33 52 18 28 1023.5 1023.5 16.2
18/09:57pm 11.9 5.9 7.0 72 2.3 SSW 28 52 15 28 1023.5 1023.5 16.2
18/09:30pm 11.1 4.6 6.5 73 2.2 SSW 30 44 16 24 1023.4 1023.4 16.0
18/09:00pm 10.9 2.6 6.3 73 2.1 S 39 59 21 32 1023.1 1023.1 16.0
18/08:30pm 11.7 5.6 6.6 71 2.4 SSW 28 46 15 25 1022.9 1022.9 15.8
18/08:20pm 12.2 6.3 7.3 72 2.4 SSW 28 48 15 26 1023.0 1023.0 15.8
18/08:00pm 11.6 5.8 6.1 69 2.6 SSW 26 39 14 21 1022.9 1022.9 15.8
18/07:30pm 11.2 3.5 6.9 75 2.0 S 37 67 20 36 1022.7 1022.7 15.8
18/07:02pm 11.2 5.6 8.8 85 1.2 SSW 28 52 15 28 1022.3 1022.3 15.8
18/07:00pm 11.4 6.3 9.3 87 1.0 SSW 26 52 14 28 1022.3 1022.3 15.8
18/06:30pm 9.8 5.1 7.7 87 1.0 SSW 22 35 12 19 1021.9 1021.9 15.4
18/06:16pm 10.5 4.8 8.4 87 1.0 SSW 28 50 15 27 1021.9 1021.9 14.6
18/06:00pm 9.7 5.0 7.8 88 0.9 SW 22 35 12 19 1021.6 1021.6 13.8
18/05:30pm 9.7 3.7 7.1 84 1.2 SSW 28 50 15 27 1021.5 1021.5 13.4
18/05:25pm 10.5 6.1 7.4 81 1.5 SW 20 50 11 27 1021.6 1021.6 12.4
18/05:00pm 10.0 5.1 7.1 82 1.4 SW 22 35 12 19 1021.1 1021.1 12.4
18/04:30pm 10.2 5.5 7.6 84 1.2 SW 22 39 12 21 1021.0 1021.0 12.4
18/04:02pm 11.9 5.7 6.2 68 2.7 SSW 28 67 15 36 1021.0 1021.0 10.8
18/04:00pm 12.2 6.0 6.3 67 2.8 SSW 28 50 15 27 1020.8 1020.8 10.6
18/03:57pm 11.9 5.0 6.4 69 2.6 SSW 32 56 17 30 1020.7 1020.7 10.6
18/03:52pm 11.9 4.4 6.4 69 2.6 S 35 56 19 30 1020.7 1020.7 10.6
18/03:47pm 11.9 4.8 6.2 68 2.7 S 33 54 18 29 1020.7 1020.7 10.6
18/03:31pm 11.9 5.4 4.6 61 3.3 SSW 28 46 15 25 1020.5 1020.5 10.6
18/03:30pm 12.0 5.1 4.7 61 3.3 SSW 30 46 16 25 1020.5 1020.5 10.6
18/03:00pm 12.2 5.5 5.4 63 3.1 SSW 30 52 16 28 1020.4 1020.4 10.6
18/02:30pm 12.1 5.8 7.4 73 2.3 SSW 30 48 16 26 1020.1 1020.1 10.6
18/02:00pm 12.1 5.4 7.2 72 2.4 SSW 32 50 17 27 1019.7 1019.7 10.6
18/01:30pm 12.3 6.0 9.7 84 1.3 SSW 33 52 18 28 1019.5 1019.5 10.4
18/01:00pm 11.5 5.1 9.2 86 1.1 SSW 33 61 18 33 1019.7 1019.7 10.0
18/12:30pm 11.9 5.9 10.0 88 1.0 SSW 32 50 17 27 1019.7 1019.7 10.0
18/12:00pm 12.1 7.0 10.5 90 0.8 SSW 28 48 15 26 1019.7 1019.7 9.4
18/11:58am 12.1 7.0 10.5 90 0.8 SSW 28 48 15 26 1019.7 1019.7 9.4
18/11:30am 11.6 7.8 9.9 89 0.9 SW 20 37 11 20 1019.9 1019.9 3.4
18/11:00am 11.1 7.1 9.2 88 0.9 SW 20 33 11 18 1019.9 1019.9 3.2
18/10:30am 12.2 8.5 10.1 87 1.1 SW 20 33 11 18 1019.8 1019.8 2.2
18/10:00am 11.4 8.1 9.5 88 1.0 SW 17 28 9 15 1019.8 1019.8 2.2
18/09:30am 10.7 6.5 8.1 84 1.3 SW 20 33 11 18 1019.7 1019.7 0.8
18/09:00am 11.1 7.0 8.5 84 1.3 SW 20 33 11 18 1019.0 1019.0 24.4
18/08:30am 11.6 7.7 8.8 83 1.4 SW 19 30 10 16 1018.8 1018.8 24.2
18/08:00am 10.7 7.8 8.1 84 1.3 WSW 13 19 7 10 1018.3 1018.3 24.2
18/07:30am 11.1 7.4 8.0 81 1.5 SW 17 24 9 13 1018.0 1018.0 24.2
18/07:00am 10.8 7.0 7.7 81 1.5 SW 17 32 9 17 1017.7 1017.7 24.2
18/06:43am 11.1 5.1 7.2 77 1.9 SSW 28 48 15 26 1017.5 1017.5 24.2
18/06:30am 11.6 7.6 8.3 80 1.6 SW 19 28 10 15 1017.2 1017.2 24.2
18/06:00am 11.9 8.0 8.6 80 1.6 SW 19 28 10 15 1016.7 1016.7 24.2
18/05:30am 12.0 7.4 8.3 78 1.8 SW 22 35 12 19 1016.2 1016.2 24.2
18/05:00am 11.9 7.2 9.1 83 1.4 SW 24 39 13 21 1015.9 1015.9 24.2
18/04:30am 12.1 7.2 8.6 79 1.7 SSW 24 41 13 22 1015.7 1015.7 24.0
18/04:00am 12.2 6.3 8.9 80 1.6 SSW 30 46 16 25 1015.3 1015.3 24.0
18/03:55am 12.3 6.8 9.1 81 1.6 SSW 28 46 15 25 1015.4 1015.4 24.0
18/03:30am 12.3 7.9 8.8 79 1.7 SSW 22 35 12 19 1015.0 1015.0 24.0
18/03:00am 12.3 7.9 8.8 79 1.7 SSW 22 39 12 21 1015.1 1015.1 24.0
18/02:30am 12.1 7.1 8.2 77 1.9 SSW 24 37 13 20 1014.8 1014.8 24.0
18/02:00am 12.1 8.2 8.8 80 1.6 SW 19 32 10 17 1014.6 1014.6 24.0
18/01:30am 11.5 8.2 9.4 87 1.1 SW 17 30 9 16 1014.3 1014.3 23.8
18/01:00am 11.6 8.3 9.7 88 1.0 SW 17 26 9 14 1013.9 1013.9 23.8
18/12:30am 11.7 8.2 10.1 90 0.8 SW 19 35 10 19 1013.8 1013.8 23.8
18/12:00am 11.2 8.4 10.0 92 0.6 SW 15 32 8 17 1013.8 1013.8 23.4
 
Date/Time
EST
Temp
°C
App
Temp
°C
Dew
Point
°C
Rel
Hum
%
Delta-T
°C
Wind Press
QNH
hPa
Press
MSL
hPa
Rain since
9am
mm
Dir  Spd
km/h
Gust
km/h
Spd
kts
Gust
kts
17/11:30pm 10.5 7.9 9.3 92 0.6 WSW 13 20 7 11 1013.6 1013.6 23.4
17/11:00pm 10.7 7.4 9.6 93 0.6 SW 17 24 9 13 1013.7 1013.7 22.4
17/10:30pm 10.6 7.3 9.7 94 0.5 SW 17 30 9 16 1013.3 1013.3 22.4
17/10:17pm 11.2 6.8 10.3 94 0.5 SSW 24 37 13 20 1013.0 1013.0 22.4
17/10:00pm 11.0 3.7 10.2 95 0.4 S 39 74 21 40 1012.5 1012.5 22.4
17/09:51pm 9.8 5.0 9.0 95 0.4 SSW 24 74 13 40 1012.5 1012.5 21.8
17/09:30pm 11.8 7.6 11.0 95 0.4 S 24 35 13 19 1012.5 1012.5 17.2
17/09:00pm 10.2 5.5 9.4 95 0.4 SW 24 37 13 20 1011.9 1011.9 17.0
17/08:30pm 9.6 4.0 8.7 94 0.4 SSW 28 41 15 22 1011.4 1011.4 17.0
17/08:17pm 9.7 6.8 8.1 90 0.8 SSW 13 65 7 35 1012.0 1012.0 15.0
17/08:00pm 10.0 6.5 8.6 91 0.7 WSW 17 24 9 13 1010.8 1010.8 13.8
17/07:30pm 9.3 6.3 7.7 90 0.8 W 13 22 7 12 1010.6 1010.6 13.8
17/07:00pm 9.8 5.6 8.2 90 0.8 SW 20 35 11 19 1010.9 1010.9 13.4
17/06:30pm 10.1 6.9 8.5 90 0.8 SW 15 26 8 14 1009.8 1009.8 10.4
17/06:00pm 10.3 6.8 8.7 90 0.8 SW 17 26 9 14 1009.0 1009.0 9.2
17/05:30pm 9.8 6.2 8.4 91 0.7 SW 17 24 9 13 1008.5 1008.5 7.8
17/05:00pm 9.4 6.0 7.8 90 0.8 WSW 15 24 8 13 1007.9 1007.9 7.2
17/04:30pm 8.8 4.6 7.3 90 0.7 W 19 32 10 17 1007.4 1007.4 5.8
17/04:00pm 8.6 5.4 6.9 89 0.8 NW 13 28 7 15 1007.3 1007.3 5.6
17/03:30pm 8.8 4.5 6.9 88 0.9 WNW 19 37 10 20 1007.1 1007.1 2.4
17/03:00pm 9.3 4.9 6.6 83 1.3 W 19 32 10 17 1006.9 1006.9 0.6
17/02:30pm 11.5 6.7 5.8 68 2.7 W 20 33 11 18 1006.2 1006.2 0.0
17/02:00pm 11.7 6.2 5.8 67 2.8 WSW 24 41 13 22 1006.1 1006.1 0.0
17/01:56pm 11.5 5.1 5.4 66 2.8 W 28 50 15 27 1006.2 1006.2 0.0
17/01:30pm 11.8 6.5 5.0 63 3.1 W 22 41 12 22 1006.1 1006.1 0.0
17/01:00pm 12.4 6.6 4.6 59 3.6 W 24 43 13 23 1005.9 1005.9 0.0
17/12:38pm 12.0 5.4 4.2 59 3.5 W 28 54 15 29 1005.9 1005.9 0.0
17/12:30pm 12.8 7.4 4.3 56 3.9 W 22 37 12 20 1005.7 1005.7 0.0
17/12:00pm 13.0 7.1 3.9 54 4.1 W 24 43 13 23 1005.8 1005.8 0.0
17/11:30am 12.6 6.3 3.8 55 4.0 WSW 26 48 14 26 1006.0 1006.0 0.0
17/11:00am 12.6 7.0 3.6 54 4.0 W 22 41 12 22 1006.0 1006.0 0.0
17/10:30am 12.1 7.4 3.3 55 3.9 W 17 32 9 17 1005.8 1005.8 0.0
17/10:00am 11.7 7.0 3.2 56 3.8 WNW 17 32 9 17 1005.7 1005.7 0.0
17/09:30am 11.4 7.5 3.4 58 3.5 WNW 13 24 7 13 1006.1 1006.1 0.0
17/09:00am 8.9 6.2 2.7 65 2.6 WNW 6 9 3 5 1006.4 1006.4 0.0
17/08:30am 6.9 3.9 2.2 72 1.9 WNW 7 9 4 5 1006.2 1006.2 0.0
17/08:00am 5.1 1.6 1.2 76 1.5 WNW 9 13 5 7 1006.0 1006.0 0.0
17/07:30am 3.7 -0.3 0.6 80 1.2 NNW 11 15 6 8 1005.7 1005.7 0.0
17/07:00am 2.7 -1.5 -0.7 78 1.2 NW 11 13 6 7 1005.6 1005.6 0.0
17/06:30am 3.6 -0.2 -0.8 73 1.6 NW 9 13 5 7 1005.3 1005.3 0.0
17/06:00am 3.3 -0.8 -0.2 78 1.3 NNW 11 15 6 8 1005.1 1005.1 0.0
17/05:30am 2.8 -0.9 0.0 82 1.0 NW 9 11 5 6 1005.3 1005.3 0.0
17/05:00am 2.0 -1.9 -1.2 79 1.1 NW 9 13 5 7 1005.3 1005.3 0.0
17/04:30am 3.6 -0.5 -0.4 75 1.5 NW 11 15 6 8 1005.6 1005.6 0.0
17/04:00am 3.5 -0.6 -0.1 77 1.3 NW 11 15 6 8 1005.8 1005.8 0.0
17/03:30am 3.3 -0.8 -0.3 77 1.3 NW 11 13 6 7 1006.1 1006.1 0.0
17/03:00am 2.9 -1.0 -1.3 74 1.5 NW 9 13 5 7 1006.4 1006.4 0.0
17/02:30am 4.2 0.1 -0.4 72 1.7 NW 11 15 6 8 1006.6 1006.6 0.0
17/02:00am 4.5 0.1 0.1 73 1.7 NW 13 15 7 8 1006.9 1006.9 0.0
17/01:30am 4.5 0.3 -0.7 69 1.9 NW 11 15 6 8 1007.0 1007.0 0.0
17/01:00am 5.4 1.4 0.4 70 1.9 NW 11 15 6 8 1007.0 1007.0 0.0
17/12:30am 4.7 1.1 0.3 73 1.7 NW 9 13 5 7 1007.4 1007.4 0.0
17/12:00am 4.6 0.9 0.0 72 1.7 NW 9 13 5 7 1007.5 1007.5 0.0
 
Date/Time
EST
Temp
°C
App
Temp
°C
Dew
Point
°C
Rel
Hum
%
Delta-T
°C
Wind Press
QNH
hPa
Press
MSL
hPa
Rain since
9am
mm
Dir  Spd
km/h
Gust
km/h
Spd
kts
Gust
kts
16/11:30pm 5.4 1.8 0.6 71 1.9 NW 9 13 5 7 1007.7 1007.7 0.0
16/11:00pm 5.3 1.7 0.7 72 1.8 NNW 9 15 5 8 1007.9 1007.9 0.0
16/10:30pm 5.7 2.5 0.5 69 2.0 NW 7 9 4 5 1008.2 1008.2 0.0
16/10:00pm 6.7 3.1 0.4 64 2.5 NW 9 11 5 6 1008.4 1008.4 0.0
16/09:30pm 7.7 4.1 0.4 60 2.9 NW 9 13 5 7 1008.4 1008.4 0.0
16/09:00pm 8.0 4.4 0.5 59 3.0 NW 9 9 5 5 1008.5 1008.5 0.0
16/08:30pm 8.8 5.2 0.3 55 3.4 NNW 9 13 5 7 1008.6 1008.6 0.0

Other Formats:

Comma delimited format used in spreadsheet applications
http://www.bom.gov.au/fwo/IDV60801/IDV60801.94935.axf

JavaScript Object Notation format (JSON) in row-major order
http://www.bom.gov.au/fwo/IDV60801/IDV60801.94935.json